sensor_id;sensor_type;location;lat;lon;timestamp;P1;durP1;ratioP1;P2;durP2;ratioP2
27558;SDS011;15002;52.028;5.670;2023-02-18T00:02:01;50.78;;;23.20;;
27558;SDS011;15002;52.028;5.670;2023-02-18T00:04:28;56.25;;;23.88;;
27558;SDS011;15002;52.028;5.670;2023-02-18T00:06:54;59.95;;;23.80;;
27558;SDS011;15002;52.028;5.670;2023-02-18T00:09:19;59.13;;;22.27;;
27558;SDS011;15002;52.028;5.670;2023-02-18T00:11:45;56.63;;;22.00;;
27558;SDS011;15002;52.028;5.670;2023-02-18T00:14:12;56.38;;;22.42;;
27558;SDS011;15002;52.028;5.670;2023-02-18T00:16:38;59.58;;;22.63;;
27558;SDS011;15002;52.028;5.670;2023-02-18T00:19:05;58.03;;;23.42;;
27558;SDS011;15002;52.028;5.670;2023-02-18T00:21:33;61.63;;;24.08;;
27558;SDS011;15002;52.028;5.670;2023-02-18T00:24:00;54.78;;;24.02;;
27558;SDS011;15002;52.028;5.670;2023-02-18T00:26:26;54.95;;;23.50;;
27558;SDS011;15002;52.028;5.670;2023-02-18T00:28:51;62.58;;;23.17;;
27558;SDS011;15002;52.028;5.670;2023-02-18T00:31:20;63.08;;;23.23;;
27558;SDS011;15002;52.028;5.670;2023-02-18T00:33:47;60.85;;;23.15;;
27558;SDS011;15002;52.028;5.670;2023-02-18T00:36:13;61.97;;;23.67;;
27558;SDS011;15002;52.028;5.670;2023-02-18T00:38:46;66.65;;;24.27;;
27558;SDS011;15002;52.028;5.670;2023-02-18T00:41:14;53.03;;;22.52;;
27558;SDS011;15002;52.028;5.670;2023-02-18T00:43:40;58.70;;;22.50;;
27558;SDS011;15002;52.028;5.670;2023-02-18T00:46:06;60.25;;;22.60;;
27558;SDS011;15002;52.028;5.670;2023-02-18T00:48:32;59.65;;;22.58;;
27558;SDS011;15002;52.028;5.670;2023-02-18T00:50:58;58.92;;;20.42;;
27558;SDS011;15002;52.028;5.670;2023-02-18T00:53:25;54.03;;;21.25;;
27558;SDS011;15002;52.028;5.670;2023-02-18T00:55:51;56.83;;;20.70;;
27558;SDS011;15002;52.028;5.670;2023-02-18T00:58:17;56.85;;;19.35;;
27558;SDS011;15002;52.028;5.670;2023-02-18T01:00:43;49.97;;;19.40;;
27558;SDS011;15002;52.028;5.670;2023-02-18T01:03:09;46.13;;;19.02;;
27558;SDS011;15002;52.028;5.670;2023-02-18T01:05:36;49.50;;;19.17;;
27558;SDS011;15002;52.028;5.670;2023-02-18T01:08:03;46.75;;;19.90;;
27558;SDS011;15002;52.028;5.670;2023-02-18T01:10:29;53.92;;;19.33;;
27558;SDS011;15002;52.028;5.670;2023-02-18T01:12:56;48.08;;;17.63;;
27558;SDS011;15002;52.028;5.670;2023-02-18T01:15:22;48.55;;;19.23;;
27558;SDS011;15002;52.028;5.670;2023-02-18T01:17:48;50.13;;;18.60;;
27558;SDS011;15002;52.028;5.670;2023-02-18T01:20:15;44.45;;;18.88;;
27558;SDS011;15002;52.028;5.670;2023-02-18T01:22:42;44.80;;;18.08;;
27558;SDS011;15002;52.028;5.670;2023-02-18T01:25:09;52.95;;;20.20;;
27558;SDS011;15002;52.028;5.670;2023-02-18T01:27:35;46.28;;;18.58;;
27558;SDS011;15002;52.028;5.670;2023-02-18T01:30:02;40.00;;;16.67;;
27558;SDS011;15002;52.028;5.670;2023-02-18T01:32:29;48.22;;;18.00;;
27558;SDS011;15002;52.028;5.670;2023-02-18T01:34:55;36.83;;;17.15;;
27558;SDS011;15002;52.028;5.670;2023-02-18T01:37:20;40.85;;;17.98;;
27558;SDS011;15002;52.028;5.670;2023-02-18T01:39:46;41.13;;;17.17;;
27558;SDS011;15002;52.028;5.670;2023-02-18T01:42:24;38.72;;;16.65;;
27558;SDS011;15002;52.028;5.670;2023-02-18T01:44:51;42.33;;;17.90;;
27558;SDS011;15002;52.028;5.670;2023-02-18T01:47:17;40.22;;;17.15;;
27558;SDS011;15002;52.028;5.670;2023-02-18T01:49:43;41.78;;;16.83;;
27558;SDS011;15002;52.028;5.670;2023-02-18T01:52:13;44.80;;;18.50;;
27558;SDS011;15002;52.028;5.670;2023-02-18T01:54:43;48.40;;;19.67;;
27558;SDS011;15002;52.028;5.670;2023-02-18T01:57:12;44.45;;;19.48;;
27558;SDS011;15002;52.028;5.670;2023-02-18T02:00:26;44.38;;;19.00;;
27558;SDS011;15002;52.028;5.670;2023-02-18T02:02:30;45.15;;;19.40;;
27558;SDS011;15002;52.028;5.670;2023-02-18T02:04:59;54.70;;;21.23;;
27558;SDS011;15002;52.028;5.670;2023-02-18T02:07:25;46.60;;;19.65;;
27558;SDS011;15002;52.028;5.670;2023-02-18T02:09:53;47.17;;;20.25;;
27558;SDS011;15002;52.028;5.670;2023-02-18T02:12:33;49.17;;;21.30;;
27558;SDS011;15002;52.028;5.670;2023-02-18T02:18:17;56.38;;;23.17;;
27558;SDS011;15002;52.028;5.670;2023-02-18T02:27:24;55.30;;;24.00;;
27558;SDS011;15002;52.028;5.670;2023-02-18T02:30:12;61.50;;;24.20;;
27558;SDS011;15002;52.028;5.670;2023-02-18T02:35:36;55.83;;;22.63;;
27558;SDS011;15002;52.028;5.670;2023-02-18T02:38:29;61.15;;;24.02;;
27558;SDS011;15002;52.028;5.670;2023-02-18T02:41:09;53.85;;;21.88;;
27558;SDS011;15002;52.028;5.670;2023-02-18T02:46:44;53.03;;;22.15;;
27558;SDS011;15002;52.028;5.670;2023-02-18T02:52:07;48.45;;;20.52;;
27558;SDS011;15002;52.028;5.670;2023-02-18T02:54:41;59.00;;;22.13;;
27558;SDS011;15002;52.028;5.670;2023-02-18T02:59:43;44.83;;;19.50;;
27558;SDS011;15002;52.028;5.670;2023-02-18T03:08:07;42.72;;;20.58;;
27558;SDS011;15002;52.028;5.670;2023-02-18T03:10:40;49.92;;;21.88;;
27558;SDS011;15002;52.028;5.670;2023-02-18T03:13:15;45.45;;;19.10;;
27558;SDS011;15002;52.028;5.670;2023-02-18T03:15:58;42.53;;;19.35;;
27558;SDS011;15002;52.028;5.670;2023-02-18T03:18:39;40.90;;;18.50;;
27558;SDS011;15002;52.028;5.670;2023-02-18T03:21:20;46.75;;;18.85;;
27558;SDS011;15002;52.028;5.670;2023-02-18T03:26:21;39.88;;;17.25;;
27558;SDS011;15002;52.028;5.670;2023-02-18T03:28:50;41.92;;;18.27;;
27558;SDS011;15002;52.028;5.670;2023-02-18T03:31:19;37.65;;;17.90;;
27558;SDS011;15002;52.028;5.670;2023-02-18T03:33:53;37.58;;;18.10;;
27558;SDS011;15002;52.028;5.670;2023-02-18T03:36:23;40.65;;;19.02;;
27558;SDS011;15002;52.028;5.670;2023-02-18T03:38:53;43.40;;;18.75;;
27558;SDS011;15002;52.028;5.670;2023-02-18T03:41:31;40.72;;;18.88;;
27558;SDS011;15002;52.028;5.670;2023-02-18T03:43:58;44.40;;;19.08;;
27558;SDS011;15002;52.028;5.670;2023-02-18T03:46:28;45.22;;;18.70;;
27558;SDS011;15002;52.028;5.670;2023-02-18T03:48:54;46.00;;;18.63;;
27558;SDS011;15002;52.028;5.670;2023-02-18T03:51:20;43.30;;;18.02;;
27558;SDS011;15002;52.028;5.670;2023-02-18T03:53:46;41.42;;;17.98;;
27558;SDS011;15002;52.028;5.670;2023-02-18T03:56:12;39.35;;;17.08;;
27558;SDS011;15002;52.028;5.670;2023-02-18T03:58:38;33.85;;;15.93;;
27558;SDS011;15002;52.028;5.670;2023-02-18T04:01:04;37.15;;;17.15;;
27558;SDS011;15002;52.028;5.670;2023-02-18T04:03:30;32.80;;;15.25;;
27558;SDS011;15002;52.028;5.670;2023-02-18T04:05:56;34.03;;;14.07;;
27558;SDS011;15002;52.028;5.670;2023-02-18T04:08:22;28.75;;;14.43;;
27558;SDS011;15002;52.028;5.670;2023-02-18T04:10:48;29.70;;;12.82;;
27558;SDS011;15002;52.028;5.670;2023-02-18T04:13:14;27.80;;;12.77;;
27558;SDS011;15002;52.028;5.670;2023-02-18T04:15:41;23.42;;;10.63;;
27558;SDS011;15002;52.028;5.670;2023-02-18T04:18:08;17.60;;;8.90;;
27558;SDS011;15002;52.028;5.670;2023-02-18T04:20:33;18.63;;;8.95;;
27558;SDS011;15002;52.028;5.670;2023-02-18T04:22:59;22.67;;;9.82;;
27558;SDS011;15002;52.028;5.670;2023-02-18T04:25:25;13.77;;;7.03;;
27558;SDS011;15002;52.028;5.670;2023-02-18T04:27:50;13.68;;;7.47;;
27558;SDS011;15002;52.028;5.670;2023-02-18T04:30:16;12.13;;;6.80;;
27558;SDS011;15002;52.028;5.670;2023-02-18T04:32:42;12.82;;;6.80;;
27558;SDS011;15002;52.028;5.670;2023-02-18T04:35:07;10.73;;;5.78;;
27558;SDS011;15002;52.028;5.670;2023-02-18T04:37:33;10.77;;;6.10;;
27558;SDS011;15002;52.028;5.670;2023-02-18T04:39:58;10.88;;;5.55;;
27558;SDS011;15002;52.028;5.670;2023-02-18T04:42:24;9.77;;;5.05;;
27558;SDS011;15002;52.028;5.670;2023-02-18T04:44:50;8.65;;;5.07;;
27558;SDS011;15002;52.028;5.670;2023-02-18T04:47:15;7.97;;;4.63;;
27558;SDS011;15002;52.028;5.670;2023-02-18T04:49:41;8.82;;;4.85;;
27558;SDS011;15002;52.028;5.670;2023-02-18T04:52:07;8.30;;;4.45;;
27558;SDS011;15002;52.028;5.670;2023-02-18T04:54:32;7.70;;;4.00;;
27558;SDS011;15002;52.028;5.670;2023-02-18T04:56:58;7.45;;;4.35;;
27558;SDS011;15002;52.028;5.670;2023-02-18T04:59:24;7.68;;;4.00;;
27558;SDS011;15002;52.028;5.670;2023-02-18T05:01:49;6.32;;;3.50;;
27558;SDS011;15002;52.028;5.670;2023-02-18T05:04:15;8.00;;;4.15;;
27558;SDS011;15002;52.028;5.670;2023-02-18T05:06:43;5.68;;;3.63;;
27558;SDS011;15002;52.028;5.670;2023-02-18T05:09:09;4.88;;;3.10;;
27558;SDS011;15002;52.028;5.670;2023-02-18T05:11:35;6.25;;;3.60;;
27558;SDS011;15002;52.028;5.670;2023-02-18T05:14:01;4.97;;;3.10;;
27558;SDS011;15002;52.028;5.670;2023-02-18T05:16:26;6.03;;;3.47;;
27558;SDS011;15002;52.028;5.670;2023-02-18T05:18:52;7.13;;;3.33;;
27558;SDS011;15002;52.028;5.670;2023-02-18T05:21:18;7.13;;;3.67;;
27558;SDS011;15002;52.028;5.670;2023-02-18T05:23:43;4.90;;;3.45;;
27558;SDS011;15002;52.028;5.670;2023-02-18T05:26:09;4.57;;;3.38;;
27558;SDS011;15002;52.028;5.670;2023-02-18T05:28:35;6.38;;;3.83;;
27558;SDS011;15002;52.028;5.670;2023-02-18T05:31:00;6.40;;;3.75;;
27558;SDS011;15002;52.028;5.670;2023-02-18T05:33:26;7.38;;;4.60;;
27558;SDS011;15002;52.028;5.670;2023-02-18T05:35:51;6.13;;;4.05;;
27558;SDS011;15002;52.028;5.670;2023-02-18T05:38:17;7.60;;;4.78;;
27558;SDS011;15002;52.028;5.670;2023-02-18T05:40:43;7.00;;;4.50;;
27558;SDS011;15002;52.028;5.670;2023-02-18T05:43:09;6.15;;;4.07;;
27558;SDS011;15002;52.028;5.670;2023-02-18T05:45:35;8.13;;;5.20;;
27558;SDS011;15002;52.028;5.670;2023-02-18T05:48:01;9.60;;;5.25;;
27558;SDS011;15002;52.028;5.670;2023-02-18T05:50:27;10.20;;;6.78;;
27558;SDS011;15002;52.028;5.670;2023-02-18T05:52:52;11.60;;;7.13;;
27558;SDS011;15002;52.028;5.670;2023-02-18T05:55:18;9.90;;;6.72;;
27558;SDS011;15002;52.028;5.670;2023-02-18T05:57:44;12.05;;;7.13;;
27558;SDS011;15002;52.028;5.670;2023-02-18T06:00:09;14.00;;;7.95;;
27558;SDS011;15002;52.028;5.670;2023-02-18T06:02:36;15.32;;;7.85;;
27558;SDS011;15002;52.028;5.670;2023-02-18T06:05:02;11.60;;;7.15;;
27558;SDS011;15002;52.028;5.670;2023-02-18T06:07:29;8.50;;;6.10;;
27558;SDS011;15002;52.028;5.670;2023-02-18T06:09:54;8.80;;;5.82;;
27558;SDS011;15002;52.028;5.670;2023-02-18T06:12:20;8.45;;;5.93;;
27558;SDS011;15002;52.028;5.670;2023-02-18T06:14:46;9.13;;;6.18;;
27558;SDS011;15002;52.028;5.670;2023-02-18T06:17:12;10.15;;;6.82;;
27558;SDS011;15002;52.028;5.670;2023-02-18T06:19:38;12.98;;;7.65;;
27558;SDS011;15002;52.028;5.670;2023-02-18T06:22:04;12.35;;;7.93;;
27558;SDS011;15002;52.028;5.670;2023-02-18T06:24:29;14.80;;;8.40;;
27558;SDS011;15002;52.028;5.670;2023-02-18T06:26:55;13.65;;;9.00;;
27558;SDS011;15002;52.028;5.670;2023-02-18T06:29:21;18.25;;;9.68;;
27558;SDS011;15002;52.028;5.670;2023-02-18T06:31:46;16.33;;;9.85;;
27558;SDS011;15002;52.028;5.670;2023-02-18T06:34:12;18.25;;;9.95;;
27558;SDS011;15002;52.028;5.670;2023-02-18T06:36:38;15.30;;;8.85;;
27558;SDS011;15002;52.028;5.670;2023-02-18T06:39:04;17.27;;;10.02;;
27558;SDS011;15002;52.028;5.670;2023-02-18T06:41:31;14.48;;;8.55;;
27558;SDS011;15002;52.028;5.670;2023-02-18T06:43:56;19.08;;;9.23;;
27558;SDS011;15002;52.028;5.670;2023-02-18T06:46:22;18.55;;;9.55;;
27558;SDS011;15002;52.028;5.670;2023-02-18T06:48:48;13.75;;;8.18;;
27558;SDS011;15002;52.028;5.670;2023-02-18T06:51:13;14.90;;;8.35;;
27558;SDS011;15002;52.028;5.670;2023-02-18T06:53:40;13.85;;;8.20;;
27558;SDS011;15002;52.028;5.670;2023-02-18T06:56:06;14.95;;;7.65;;
27558;SDS011;15002;52.028;5.670;2023-02-18T06:58:32;12.82;;;7.40;;
27558;SDS011;15002;52.028;5.670;2023-02-18T07:00:58;12.13;;;7.72;;
27558;SDS011;15002;52.028;5.670;2023-02-18T07:03:23;11.98;;;7.15;;
27558;SDS011;15002;52.028;5.670;2023-02-18T07:05:49;14.90;;;8.18;;
27558;SDS011;15002;52.028;5.670;2023-02-18T07:08:15;15.52;;;8.10;;
27558;SDS011;15002;52.028;5.670;2023-02-18T07:10:41;14.32;;;8.32;;
27558;SDS011;15002;52.028;5.670;2023-02-18T07:13:06;13.90;;;7.88;;
27558;SDS011;15002;52.028;5.670;2023-02-18T07:15:32;12.80;;;7.93;;
27558;SDS011;15002;52.028;5.670;2023-02-18T07:17:58;15.40;;;8.38;;
27558;SDS011;15002;52.028;5.670;2023-02-18T07:20:24;13.73;;;7.75;;
27558;SDS011;15002;52.028;5.670;2023-02-18T07:22:50;14.10;;;8.00;;
27558;SDS011;15002;52.028;5.670;2023-02-18T07:25:16;17.67;;;8.52;;
27558;SDS011;15002;52.028;5.670;2023-02-18T07:27:42;15.57;;;8.27;;
27558;SDS011;15002;52.028;5.670;2023-02-18T07:30:08;16.10;;;8.52;;
27558;SDS011;15002;52.028;5.670;2023-02-18T07:32:34;16.65;;;8.70;;
27558;SDS011;15002;52.028;5.670;2023-02-18T07:35:00;15.70;;;8.57;;
27558;SDS011;15002;52.028;5.670;2023-02-18T07:37:26;20.38;;;7.75;;
27558;SDS011;15002;52.028;5.670;2023-02-18T07:39:52;17.42;;;8.10;;
27558;SDS011;15002;52.028;5.670;2023-02-18T07:42:18;19.67;;;7.75;;
27558;SDS011;15002;52.028;5.670;2023-02-18T07:44:43;19.73;;;7.45;;
27558;SDS011;15002;52.028;5.670;2023-02-18T07:47:09;16.48;;;7.68;;
27558;SDS011;15002;52.028;5.670;2023-02-18T07:49:38;14.68;;;7.22;;
27558;SDS011;15002;52.028;5.670;2023-02-18T07:52:05;15.13;;;7.03;;
27558;SDS011;15002;52.028;5.670;2023-02-18T07:54:30;18.98;;;7.32;;
27558;SDS011;15002;52.028;5.670;2023-02-18T07:56:56;15.57;;;7.40;;
27558;SDS011;15002;52.028;5.670;2023-02-18T07:59:22;18.23;;;7.03;;
27558;SDS011;15002;52.028;5.670;2023-02-18T08:01:48;20.83;;;6.93;;
27558;SDS011;15002;52.028;5.670;2023-02-18T08:04:13;18.05;;;7.25;;
27558;SDS011;15002;52.028;5.670;2023-02-18T08:06:41;19.50;;;7.47;;
27558;SDS011;15002;52.028;5.670;2023-02-18T08:09:10;23.70;;;6.13;;
27558;SDS011;15002;52.028;5.670;2023-02-18T08:11:36;20.15;;;6.78;;
27558;SDS011;15002;52.028;5.670;2023-02-18T08:14:02;23.80;;;7.35;;
27558;SDS011;15002;52.028;5.670;2023-02-18T08:16:34;20.63;;;6.57;;
27558;SDS011;15002;52.028;5.670;2023-02-18T08:19:00;16.73;;;6.07;;
27558;SDS011;15002;52.028;5.670;2023-02-18T08:21:27;22.60;;;5.50;;
27558;SDS011;15002;52.028;5.670;2023-02-18T08:23:54;18.83;;;5.03;;
27558;SDS011;15002;52.028;5.670;2023-02-18T08:26:19;19.70;;;4.68;;
27558;SDS011;15002;52.028;5.670;2023-02-18T08:28:45;16.15;;;4.60;;
27558;SDS011;15002;52.028;5.670;2023-02-18T08:31:24;25.50;;;4.30;;
27558;SDS011;15002;52.028;5.670;2023-02-18T08:33:53;22.38;;;3.92;;
27558;SDS011;15002;52.028;5.670;2023-02-18T08:36:20;17.95;;;4.15;;
27558;SDS011;15002;52.028;5.670;2023-02-18T08:38:46;19.45;;;3.42;;
27558;SDS011;15002;52.028;5.670;2023-02-18T08:41:12;19.20;;;3.42;;
27558;SDS011;15002;52.028;5.670;2023-02-18T08:43:42;17.65;;;3.33;;
27558;SDS011;15002;52.028;5.670;2023-02-18T08:46:08;14.77;;;3.72;;
27558;SDS011;15002;52.028;5.670;2023-02-18T08:48:34;14.90;;;2.80;;
27558;SDS011;15002;52.028;5.670;2023-02-18T08:51:09;13.30;;;2.75;;
27558;SDS011;15002;52.028;5.670;2023-02-18T08:53:39;17.38;;;3.08;;
27558;SDS011;15002;52.028;5.670;2023-02-18T08:56:08;19.65;;;3.28;;
27558;SDS011;15002;52.028;5.670;2023-02-18T08:58:34;17.85;;;2.13;;
27558;SDS011;15002;52.028;5.670;2023-02-18T09:01:02;11.20;;;2.67;;
27558;SDS011;15002;52.028;5.670;2023-02-18T09:03:32;15.95;;;2.63;;
27558;SDS011;15002;52.028;5.670;2023-02-18T09:05:59;17.75;;;2.75;;
27558;SDS011;15002;52.028;5.670;2023-02-18T09:08:25;18.38;;;2.75;;
27558;SDS011;15002;52.028;5.670;2023-02-18T09:10:58;18.25;;;2.53;;
27558;SDS011;15002;52.028;5.670;2023-02-18T09:13:26;17.95;;;3.22;;
27558;SDS011;15002;52.028;5.670;2023-02-18T09:15:55;10.82;;;2.42;;
27558;SDS011;15002;52.028;5.670;2023-02-18T09:18:25;10.50;;;1.95;;
27558;SDS011;15002;52.028;5.670;2023-02-18T09:20:54;12.18;;;2.20;;
27558;SDS011;15002;52.028;5.670;2023-02-18T09:23:21;13.10;;;2.55;;
27558;SDS011;15002;52.028;5.670;2023-02-18T09:25:46;10.18;;;2.65;;
27558;SDS011;15002;52.028;5.670;2023-02-18T09:28:12;13.65;;;2.67;;
27558;SDS011;15002;52.028;5.670;2023-02-18T09:30:38;11.88;;;2.40;;
27558;SDS011;15002;52.028;5.670;2023-02-18T09:33:04;12.60;;;2.50;;
27558;SDS011;15002;52.028;5.670;2023-02-18T09:35:30;13.25;;;2.15;;
27558;SDS011;15002;52.028;5.670;2023-02-18T09:37:56;19.75;;;2.70;;
27558;SDS011;15002;52.028;5.670;2023-02-18T09:40:26;15.07;;;2.70;;
27558;SDS011;15002;52.028;5.670;2023-02-18T09:42:54;13.38;;;2.45;;
27558;SDS011;15002;52.028;5.670;2023-02-18T09:45:21;11.68;;;2.50;;
27558;SDS011;15002;52.028;5.670;2023-02-18T09:47:47;18.38;;;2.95;;
27558;SDS011;15002;52.028;5.670;2023-02-18T09:52:45;14.20;;;2.65;;
27558;SDS011;15002;52.028;5.670;2023-02-18T09:57:48;16.55;;;2.65;;
27558;SDS011;15002;52.028;5.670;2023-02-18T10:00:20;9.50;;;2.25;;
27558;SDS011;15002;52.028;5.670;2023-02-18T10:05:19;16.10;;;2.70;;
27558;SDS011;15002;52.028;5.670;2023-02-18T10:07:46;15.35;;;2.67;;
27558;SDS011;15002;52.028;5.670;2023-02-18T10:10:33;16.05;;;3.53;;
27558;SDS011;15002;52.028;5.670;2023-02-18T10:13:10;16.75;;;3.50;;
27558;SDS011;15002;52.028;5.670;2023-02-18T10:15:38;13.07;;;2.75;;
27558;SDS011;15002;52.028;5.670;2023-02-18T10:18:06;14.05;;;2.83;;
27558;SDS011;15002;52.028;5.670;2023-02-18T10:20:51;15.00;;;2.90;;
27558;SDS011;15002;52.028;5.670;2023-02-18T10:23:20;11.43;;;3.53;;
27558;SDS011;15002;52.028;5.670;2023-02-18T10:25:47;13.95;;;2.92;;
27558;SDS011;15002;52.028;5.670;2023-02-18T10:28:14;17.27;;;3.20;;
27558;SDS011;15002;52.028;5.670;2023-02-18T10:30:45;14.63;;;2.95;;
27558;SDS011;15002;52.028;5.670;2023-02-18T10:49:57;11.43;;;3.80;;
27558;SDS011;15002;52.028;5.670;2023-02-18T10:52:36;16.27;;;3.97;;
27558;SDS011;15002;52.028;5.670;2023-02-18T10:55:12;16.73;;;3.50;;
27558;SDS011;15002;52.028;5.670;2023-02-18T10:57:51;20.92;;;3.60;;
27558;SDS011;15002;52.028;5.670;2023-02-18T11:00:20;16.70;;;4.05;;
27558;SDS011;15002;52.028;5.670;2023-02-18T11:05:39;12.25;;;4.13;;
27558;SDS011;15002;52.028;5.670;2023-02-18T11:08:07;14.80;;;4.00;;
27558;SDS011;15002;52.028;5.670;2023-02-18T11:10:38;17.67;;;5.25;;
27558;SDS011;15002;52.028;5.670;2023-02-18T11:13:08;19.98;;;4.97;;
27558;SDS011;15002;52.028;5.670;2023-02-18T11:15:36;21.02;;;5.35;;
27558;SDS011;15002;52.028;5.670;2023-02-18T11:21:21;17.10;;;5.45;;
27558;SDS011;15002;52.028;5.670;2023-02-18T11:24:09;15.27;;;4.43;;
27558;SDS011;15002;52.028;5.670;2023-02-18T11:26:46;21.85;;;5.70;;
27558;SDS011;15002;52.028;5.670;2023-02-18T11:31:43;15.48;;;4.35;;
27558;SDS011;15002;52.028;5.670;2023-02-18T11:34:29;13.98;;;4.30;;
27558;SDS011;15002;52.028;5.670;2023-02-18T11:37:06;29.42;;;5.35;;
27558;SDS011;15002;52.028;5.670;2023-02-18T11:39:43;17.40;;;4.90;;
27558;SDS011;15002;52.028;5.670;2023-02-18T11:42:13;16.13;;;4.72;;
27558;SDS011;15002;52.028;5.670;2023-02-18T11:44:40;14.70;;;4.50;;
27558;SDS011;15002;52.028;5.670;2023-02-18T11:49:42;22.85;;;5.07;;
27558;SDS011;15002;52.028;5.670;2023-02-18T11:52:27;19.50;;;4.60;;
27558;SDS011;15002;52.028;5.670;2023-02-18T11:57:38;16.33;;;5.40;;
27558;SDS011;15002;52.028;5.670;2023-02-18T12:02:45;21.33;;;5.00;;
27558;SDS011;15002;52.028;5.670;2023-02-18T12:05:22;16.30;;;5.03;;
27558;SDS011;15002;52.028;5.670;2023-02-18T12:07:51;20.50;;;5.65;;
27558;SDS011;15002;52.028;5.670;2023-02-18T12:10:39;18.75;;;5.80;;
27558;SDS011;15002;52.028;5.670;2023-02-18T12:13:25;19.15;;;5.30;;
27558;SDS011;15002;52.028;5.670;2023-02-18T12:21:07;17.55;;;5.00;;
27558;SDS011;15002;52.028;5.670;2023-02-18T12:24:17;18.42;;;4.70;;
27558;SDS011;15002;52.028;5.670;2023-02-18T12:27:17;19.90;;;6.43;;
27558;SDS011;15002;52.028;5.670;2023-02-18T12:35:38;19.38;;;5.32;;
27558;SDS011;15002;52.028;5.670;2023-02-18T12:41:15;21.70;;;4.97;;
27558;SDS011;15002;52.028;5.670;2023-02-18T12:44:06;15.27;;;5.13;;
27558;SDS011;15002;52.028;5.670;2023-02-18T12:47:01;22.23;;;6.18;;
27558;SDS011;15002;52.028;5.670;2023-02-18T12:52:21;10.90;;;4.97;;
27558;SDS011;15002;52.028;5.670;2023-02-18T12:54:56;14.68;;;5.50;;
27558;SDS011;15002;52.028;5.670;2023-02-18T12:57:50;13.77;;;5.25;;
27558;SDS011;15002;52.028;5.670;2023-02-18T13:05:43;17.27;;;5.13;;
27558;SDS011;15002;52.028;5.670;2023-02-18T13:13:49;17.35;;;4.72;;
27558;SDS011;15002;52.028;5.670;2023-02-18T13:16:34;14.23;;;4.15;;
27558;SDS011;15002;52.028;5.670;2023-02-18T13:24:33;12.75;;;4.00;;
27558;SDS011;15002;52.028;5.670;2023-02-18T13:41:12;14.57;;;4.60;;
27558;SDS011;15002;52.028;5.670;2023-02-18T13:43:38;23.13;;;5.53;;
27558;SDS011;15002;52.028;5.670;2023-02-18T13:46:14;14.70;;;5.47;;
27558;SDS011;15002;52.028;5.670;2023-02-18T13:48:47;13.73;;;4.65;;
27558;SDS011;15002;52.028;5.670;2023-02-18T13:51:28;15.18;;;4.78;;
27558;SDS011;15002;52.028;5.670;2023-02-18T13:54:00;17.52;;;5.38;;
27558;SDS011;15002;52.028;5.670;2023-02-18T13:56:38;17.75;;;5.38;;
27558;SDS011;15002;52.028;5.670;2023-02-18T13:59:08;16.80;;;5.22;;
27558;SDS011;15002;52.028;5.670;2023-02-18T14:04:02;21.30;;;5.00;;
27558;SDS011;15002;52.028;5.670;2023-02-18T14:09:49;18.50;;;5.13;;
27558;SDS011;15002;52.028;5.670;2023-02-18T14:12:36;12.30;;;4.82;;
27558;SDS011;15002;52.028;5.670;2023-02-18T14:20:26;22.35;;;5.20;;
27558;SDS011;15002;52.028;5.670;2023-02-18T14:22:55;18.15;;;4.75;;
27558;SDS011;15002;52.028;5.670;2023-02-18T14:25:30;20.02;;;4.53;;
27558;SDS011;15002;52.028;5.670;2023-02-18T14:28:00;20.30;;;4.68;;
27558;SDS011;15002;52.028;5.670;2023-02-18T14:30:32;12.45;;;4.57;;
27558;SDS011;15002;52.028;5.670;2023-02-18T14:33:02;18.80;;;5.45;;
27558;SDS011;15002;52.028;5.670;2023-02-18T14:35:39;12.77;;;4.60;;
27558;SDS011;15002;52.028;5.670;2023-02-18T14:51:46;18.55;;;5.15;;
27558;SDS011;15002;52.028;5.670;2023-02-18T14:54:17;19.17;;;5.03;;
27558;SDS011;15002;52.028;5.670;2023-02-18T14:59:17;13.40;;;4.93;;
27558;SDS011;15002;52.028;5.670;2023-02-18T15:01:45;20.63;;;6.00;;
27558;SDS011;15002;52.028;5.670;2023-02-18T15:04:11;23.13;;;5.65;;
27558;SDS011;15002;52.028;5.670;2023-02-18T15:06:39;15.85;;;4.80;;
27558;SDS011;15002;52.028;5.670;2023-02-18T15:09:12;18.17;;;5.50;;
27558;SDS011;15002;52.028;5.670;2023-02-18T15:11:43;15.80;;;5.22;;
27558;SDS011;15002;52.028;5.670;2023-02-18T15:14:26;16.05;;;4.75;;
27558;SDS011;15002;52.028;5.670;2023-02-18T15:16:55;17.17;;;5.43;;
27558;SDS011;15002;52.028;5.670;2023-02-18T15:19:26;17.27;;;4.85;;
27558;SDS011;15002;52.028;5.670;2023-02-18T15:21:56;19.95;;;5.75;;
27558;SDS011;15002;52.028;5.670;2023-02-18T15:24:32;17.98;;;5.60;;
27558;SDS011;15002;52.028;5.670;2023-02-18T15:27:02;17.65;;;5.50;;
27558;SDS011;15002;52.028;5.670;2023-02-18T15:29:35;18.63;;;6.10;;
27558;SDS011;15002;52.028;5.670;2023-02-18T15:32:09;18.23;;;5.78;;
27558;SDS011;15002;52.028;5.670;2023-02-18T15:35:13;22.05;;;5.50;;
27558;SDS011;15002;52.028;5.670;2023-02-18T15:37:43;12.70;;;5.78;;
27558;SDS011;15002;52.028;5.670;2023-02-18T15:40:16;17.92;;;7.07;;
27558;SDS011;15002;52.028;5.670;2023-02-18T15:42:44;17.17;;;6.70;;
27558;SDS011;15002;52.028;5.670;2023-02-18T15:45:28;21.27;;;6.75;;
27558;SDS011;15002;52.028;5.670;2023-02-18T15:47:58;17.30;;;6.57;;
27558;SDS011;15002;52.028;5.670;2023-02-18T15:50:27;16.17;;;6.57;;
27558;SDS011;15002;52.028;5.670;2023-02-18T15:52:57;14.18;;;7.10;;
27558;SDS011;15002;52.028;5.670;2023-02-18T15:55:32;16.92;;;7.32;;
27558;SDS011;15002;52.028;5.670;2023-02-18T15:58:02;18.73;;;7.35;;
27558;SDS011;15002;52.028;5.670;2023-02-18T16:00:38;16.83;;;7.53;;
27558;SDS011;15002;52.028;5.670;2023-02-18T16:03:12;17.00;;;7.03;;
27558;SDS011;15002;52.028;5.670;2023-02-18T16:08:59;17.55;;;7.30;;
27558;SDS011;15002;52.028;5.670;2023-02-18T16:11:29;23.20;;;7.38;;
27558;SDS011;15002;52.028;5.670;2023-02-18T16:14:04;16.88;;;6.90;;
27558;SDS011;15002;52.028;5.670;2023-02-18T16:16:31;21.35;;;6.72;;
27558;SDS011;15002;52.028;5.670;2023-02-18T16:19:03;23.58;;;6.80;;
27558;SDS011;15002;52.028;5.670;2023-02-18T16:21:36;20.25;;;7.28;;
27558;SDS011;15002;52.028;5.670;2023-02-18T16:24:20;24.15;;;8.07;;
27558;SDS011;15002;52.028;5.670;2023-02-18T16:26:52;15.50;;;6.68;;
27558;SDS011;15002;52.028;5.670;2023-02-18T16:29:42;24.58;;;8.15;;
27558;SDS011;15002;52.028;5.670;2023-02-18T16:32:07;24.50;;;7.90;;
27558;SDS011;15002;52.028;5.670;2023-02-18T16:34:33;16.05;;;7.28;;
27558;SDS011;15002;52.028;5.670;2023-02-18T16:36:59;16.65;;;7.47;;
27558;SDS011;15002;52.028;5.670;2023-02-18T16:39:44;15.50;;;6.85;;
27558;SDS011;15002;52.028;5.670;2023-02-18T16:42:10;18.73;;;6.45;;
27558;SDS011;15002;52.028;5.670;2023-02-18T16:44:39;19.45;;;7.05;;
27558;SDS011;15002;52.028;5.670;2023-02-18T16:47:05;20.58;;;7.28;;
27558;SDS011;15002;52.028;5.670;2023-02-18T16:49:32;20.08;;;6.95;;
27558;SDS011;15002;52.028;5.670;2023-02-18T16:51:59;16.45;;;7.03;;
27558;SDS011;15002;52.028;5.670;2023-02-18T16:56:55;16.92;;;6.43;;
27558;SDS011;15002;52.028;5.670;2023-02-18T16:59:21;19.52;;;7.18;;
27558;SDS011;15002;52.028;5.670;2023-02-18T17:01:46;18.60;;;7.15;;
27558;SDS011;15002;52.028;5.670;2023-02-18T17:04:13;17.98;;;6.20;;
27558;SDS011;15002;52.028;5.670;2023-02-18T17:06:40;23.48;;;7.68;;
27558;SDS011;15002;52.028;5.670;2023-02-18T17:09:13;19.55;;;6.93;;
27558;SDS011;15002;52.028;5.670;2023-02-18T17:11:41;17.67;;;7.18;;
27558;SDS011;15002;52.028;5.670;2023-02-18T17:14:09;23.45;;;8.05;;
27558;SDS011;15002;52.028;5.670;2023-02-18T17:16:38;16.58;;;7.07;;
27558;SDS011;15002;52.028;5.670;2023-02-18T17:19:04;20.23;;;7.20;;